createdAt,value
2018-12-24T00:02:23.070Z,8.70
2018-12-24T00:04:51.882Z,8.65
2018-12-24T00:07:20.359Z,8.60
2018-12-24T00:09:48.824Z,8.37
2018-12-24T00:12:17.298Z,8.34
2018-12-24T00:15:05.407Z,8.31
2018-12-24T00:18:13.811Z,8.54
2018-12-24T00:21:01.624Z,8.36
2018-12-24T00:23:30.101Z,8.27
2018-12-24T00:25:58.575Z,8.21
2018-12-24T00:28:27.083Z,8.12
2018-12-24T00:30:55.544Z,8.09
2018-12-24T00:33:24.012Z,8.21
2018-12-24T00:35:52.493Z,7.95
2018-12-24T00:38:40.308Z,8.00
2018-12-24T00:41:08.807Z,8.28
2018-12-24T00:43:37.293Z,8.08
2018-12-24T00:46:05.761Z,8.03
2018-12-24T00:48:34.231Z,7.87
2018-12-24T00:51:02.720Z,7.97
2018-12-24T00:53:31.184Z,8.01
2018-12-24T00:55:59.918Z,7.82
2018-12-24T00:58:28.395Z,7.77
2018-12-24T01:00:56.874Z,7.74
2018-12-24T01:03:44.687Z,7.84
2018-12-24T01:06:13.190Z,7.71
2018-12-24T01:08:41.661Z,7.75
2018-12-24T01:11:10.160Z,7.54
2018-12-24T01:13:38.627Z,7.53
2018-12-24T01:16:07.103Z,7.61
2018-12-24T01:18:35.581Z,7.74
2018-12-24T01:21:04.052Z,7.74
2018-12-24T01:23:32.525Z,7.72
2018-12-24T01:26:01.001Z,7.88
2018-12-24T01:28:29.480Z,7.58
2018-12-24T01:31:17.296Z,7.66
2018-12-24T01:33:45.768Z,7.42
2018-12-24T01:36:14.236Z,7.42
2018-12-24T01:38:42.724Z,7.33
2018-12-24T01:41:11.885Z,7.43
2018-12-24T01:43:40.386Z,7.60
2018-12-24T01:46:08.863Z,7.59
2018-12-24T01:48:37.332Z,7.49
2018-12-24T01:51:05.832Z,7.38
2018-12-24T01:53:34.392Z,7.48
2018-12-24T01:56:02.860Z,7.53
2018-12-24T01:58:31.579Z,7.46
2018-12-24T02:01:00.060Z,7.41
2018-12-24T02:03:28.533Z,7.42
2018-12-24T02:05:57.017Z,7.43
2018-12-24T02:08:25.752Z,7.49
2018-12-24T02:10:54.231Z,7.34
2018-12-24T02:13:22.704Z,7.33
2018-12-24T02:15:51.197Z,7.54
2018-12-24T02:18:39.001Z,7.44
2018-12-24T02:21:07.716Z,7.39
2018-12-24T02:23:36.194Z,7.50
2018-12-24T02:26:04.718Z,7.39
2018-12-24T02:28:33.189Z,7.45
2018-12-24T02:31:01.667Z,7.45
2018-12-24T02:33:30.155Z,7.35
2018-12-24T02:35:58.628Z,7.23
2018-12-24T02:38:27.118Z,7.31
2018-12-24T02:40:55.586Z,7.44
2018-12-24T02:43:24.076Z,7.33
2018-12-24T02:45:52.625Z,7.49
2018-12-24T02:48:40.570Z,7.43
2018-12-24T02:51:09.057Z,7.51
2018-12-24T02:53:37.535Z,7.55
2018-12-24T02:56:06.100Z,7.52
2018-12-24T02:58:34.577Z,7.33
2018-12-24T03:01:03.060Z,7.35
2018-12-24T03:03:31.547Z,7.51
2018-12-24T03:06:00.022Z,7.45
2018-12-24T03:08:28.530Z,7.35
2018-12-24T03:10:57.009Z,7.53
2018-12-24T03:13:25.497Z,7.37
2018-12-24T03:15:53.979Z,7.53
2018-12-24T03:18:22.475Z,7.50
2018-12-24T03:20:50.958Z,7.46
2018-12-24T03:23:19.439Z,7.33
2018-12-24T03:25:47.940Z,7.41
2018-12-24T03:28:16.419Z,7.16
2018-12-24T03:30:44.903Z,7.33
2018-12-24T03:33:13.380Z,7.31
2018-12-24T03:35:42.105Z,7.32
2018-12-24T03:38:10.580Z,7.37
2018-12-24T03:40:39.068Z,7.44
2018-12-24T03:43:12.418Z,7.49
2018-12-24T03:45:37.780Z,7.34
2018-12-24T03:48:06.256Z,7.50
2018-12-24T03:50:34.729Z,7.40
2018-12-24T03:53:03.217Z,7.55
2018-12-24T03:55:31.705Z,7.54
2018-12-24T03:58:19.519Z,7.59
2018-12-24T04:00:48.006Z,7.64
2018-12-24T04:03:16.484Z,7.53
2018-12-24T04:05:44.968Z,7.71
2018-12-24T04:08:13.444Z,7.76
2018-12-24T04:11:01.252Z,7.67
2018-12-24T04:13:29.814Z,7.54
2018-12-24T04:15:58.292Z,7.68
2018-12-24T04:18:26.792Z,7.65
2018-12-24T04:20:55.272Z,7.42
2018-12-24T04:23:23.749Z,7.48
2018-12-24T04:25:52.223Z,7.44
2018-12-24T04:28:20.711Z,7.69
2018-12-24T04:30:49.187Z,7.67
2018-12-24T04:33:17.669Z,7.60
2018-12-24T04:35:46.357Z,7.82
2018-12-24T04:38:14.837Z,7.45
2018-12-24T04:40:43.329Z,7.47
2018-12-24T04:43:11.816Z,7.56
2018-12-24T04:45:40.298Z,7.40
2018-12-24T04:48:28.248Z,7.38
2018-12-24T04:50:56.729Z,7.46
2018-12-24T04:53:25.212Z,7.47
2018-12-24T04:56:13.108Z,7.41
2018-12-24T04:58:41.620Z,7.53
2018-12-24T05:01:29.429Z,7.61
2018-12-24T05:03:57.927Z,7.68
2018-12-24T05:06:26.405Z,7.73
2018-12-24T05:08:54.881Z,7.70
2018-12-24T05:11:23.362Z,7.66
2018-12-24T05:13:51.860Z,7.68
2018-12-24T05:16:20.343Z,7.54
2018-12-24T05:18:48.824Z,7.74
2018-12-24T05:21:17.301Z,7.80
2018-12-24T05:23:45.872Z,7.64
2018-12-24T05:26:14.354Z,7.76
2018-12-24T05:28:42.968Z,7.82
2018-12-24T05:31:11.406Z,7.80
2018-12-24T05:33:40.019Z,7.88
2018-12-24T05:36:08.506Z,7.88
2018-12-24T05:38:36.985Z,7.91
2018-12-24T05:41:05.472Z,7.87
2018-12-24T05:43:53.285Z,7.82
2018-12-24T05:46:21.783Z,7.71
2018-12-24T05:48:50.351Z,7.84
2018-12-24T05:51:18.836Z,7.81
2018-12-24T05:53:47.309Z,7.84
2018-12-24T05:56:15.802Z,7.77
2018-12-24T05:58:44.275Z,7.72
2018-12-24T06:01:12.764Z,7.86
2018-12-24T06:03:41.245Z,7.92
2018-12-24T06:06:09.730Z,7.43
2018-12-24T06:08:38.199Z,7.72
2018-12-24T06:11:06.694Z,7.71
2018-12-24T06:13:35.168Z,7.59
2018-12-24T06:16:03.647Z,7.72
2018-12-24T06:18:32.118Z,7.80
2018-12-24T06:21:00.598Z,7.68
2018-12-24T06:23:29.074Z,7.50
2018-12-24T06:25:57.554Z,7.66
2018-12-24T06:28:26.034Z,7.46
2018-12-24T06:30:54.514Z,7.48
2018-12-24T06:33:22.999Z,7.41
2018-12-24T06:35:51.578Z,7.38
2018-12-24T06:38:20.042Z,7.39
2018-12-24T06:40:48.519Z,7.47
2018-12-24T06:43:17.012Z,7.47
2018-12-24T06:45:45.503Z,7.46
2018-12-24T06:48:13.991Z,7.49
2018-12-24T06:50:42.482Z,7.48
2018-12-24T06:53:11.218Z,7.51
2018-12-24T06:55:39.692Z,7.40
2018-12-24T06:58:08.181Z,7.57
2018-12-24T07:00:36.659Z,7.60
2018-12-24T07:03:05.136Z,7.66
2018-12-24T07:05:33.621Z,7.61
2018-12-24T07:08:02.110Z,7.91
2018-12-24T07:10:30.572Z,7.79
2018-12-24T07:12:59.066Z,7.77
2018-12-24T07:15:27.563Z,7.72
2018-12-24T07:17:56.015Z,7.72
2018-12-24T07:20:24.510Z,7.71
2018-12-24T07:22:53.219Z,7.77
2018-12-24T07:25:21.713Z,7.79
2018-12-24T07:27:50.188Z,7.88
2018-12-24T07:30:18.677Z,7.84
2018-12-24T07:32:47.146Z,8.04
2018-12-24T07:35:15.635Z,7.79
2018-12-24T07:37:44.114Z,7.90
2018-12-24T07:40:31.945Z,8.00
2018-12-24T07:43:00.419Z,8.05
2018-12-24T07:45:28.905Z,7.98
2018-12-24T07:47:57.383Z,7.88
2018-12-24T07:50:25.875Z,8.03
2018-12-24T07:52:54.352Z,7.84
2018-12-24T07:55:42.307Z,8.04
2018-12-24T07:58:10.782Z,8.06
2018-12-24T08:00:39.273Z,7.83
2018-12-24T08:03:08.000Z,7.87
2018-12-24T08:05:36.476Z,8.03
2018-12-24T08:08:24.553Z,8.17
2018-12-24T08:10:53.361Z,8.15
2018-12-24T08:13:21.845Z,7.84
2018-12-24T08:15:50.327Z,8.16
2018-12-24T08:18:18.822Z,8.11
2018-12-24T08:20:47.545Z,8.16
2018-12-24T08:23:16.064Z,8.21
2018-12-24T08:25:44.539Z,8.13
2018-12-24T08:28:13.026Z,8.21
2018-12-24T08:30:41.509Z,8.16
2018-12-24T08:33:09.994Z,8.02
2018-12-24T08:36:19.559Z,7.98
2018-12-24T08:38:48.230Z,7.96
2018-12-24T08:44:26.379Z,8.09
2018-12-24T08:46:55.100Z,8.11
2018-12-24T08:49:23.590Z,8.33
2018-12-24T08:52:11.413Z,8.03
2018-12-24T08:54:39.941Z,8.33
2018-12-24T08:57:27.786Z,8.25
2018-12-24T08:59:56.245Z,8.49
2018-12-24T09:02:24.731Z,8.36
2018-12-24T09:04:53.216Z,8.29
2018-12-24T09:07:41.037Z,8.12
2018-12-24T09:10:09.523Z,8.10
2018-12-24T09:12:38.002Z,8.21
2018-12-24T09:15:46.400Z,8.06
2018-12-24T09:18:14.922Z,7.96
2018-12-24T09:20:43.369Z,7.99
2018-12-24T09:23:11.842Z,7.86
2018-12-24T09:25:40.581Z,7.99
2018-12-24T09:28:09.060Z,7.91
2018-12-24T09:33:32.587Z,7.73
2018-12-24T09:36:01.076Z,7.99
2018-12-24T09:38:29.552Z,8.03
2018-12-24T09:40:58.039Z,8.18
2018-12-24T09:43:26.521Z,8.27
2018-12-24T09:45:55.003Z,7.88
2018-12-24T09:48:23.475Z,8.04
2018-12-24T09:50:59.081Z,8.00
2018-12-24T09:53:27.677Z,7.84
2018-12-24T09:56:15.361Z,7.72
2018-12-24T09:58:43.844Z,7.86
2018-12-24T10:01:12.555Z,7.92
2018-12-24T10:03:41.023Z,8.15
2018-12-24T10:06:09.506Z,8.01
2018-12-24T10:08:37.999Z,8.08
2018-12-24T10:11:06.699Z,8.01
2018-12-24T10:13:35.177Z,8.10
2018-12-24T10:16:03.653Z,8.02
2018-12-24T10:18:32.131Z,7.92
2018-12-24T10:21:00.600Z,7.77
2018-12-24T10:23:29.075Z,7.83
2018-12-24T10:25:57.553Z,7.87
2018-12-24T10:28:26.035Z,7.95
2018-12-24T10:30:54.513Z,7.87
2018-12-24T10:33:22.979Z,7.86
2018-12-24T10:35:51.465Z,7.80
2018-12-24T10:38:19.933Z,7.71
2018-12-24T10:41:29.682Z,7.92
2018-12-24T10:43:58.552Z,7.73
2018-12-24T10:46:27.034Z,7.83
2018-12-24T10:48:55.563Z,7.74
2018-12-24T10:51:24.045Z,7.86
2018-12-24T10:53:52.513Z,7.79
2018-12-24T10:56:40.326Z,7.64
2018-12-24T10:59:08.791Z,7.71
2018-12-24T11:01:37.266Z,8.00
2018-12-24T11:04:05.984Z,7.98
2018-12-24T11:06:34.462Z,8.13
2018-12-24T11:11:52.253Z,8.01
2018-12-24T11:14:21.077Z,7.88
2018-12-24T11:17:01.494Z,7.82
2018-12-24T11:19:19.745Z,8.10
2018-12-24T11:21:48.223Z,8.17
2018-12-24T11:24:16.705Z,8.11
2018-12-24T11:26:45.201Z,8.39
2018-12-24T11:29:13.668Z,8.25
2018-12-24T11:31:42.156Z,8.57
2018-12-24T11:34:10.628Z,8.87
2018-12-24T11:36:39.110Z,8.72
2018-12-24T11:39:07.593Z,8.72
2018-12-24T11:41:36.103Z,8.38
2018-12-24T11:44:04.581Z,8.27
2018-12-24T11:46:33.049Z,8.07
2018-12-24T11:49:01.526Z,8.30
2018-12-24T11:51:29.998Z,8.19
2018-12-24T11:53:58.489Z,8.26
2018-12-24T11:56:27.190Z,8.48
2018-12-24T11:58:55.909Z,8.51
2018-12-24T12:01:24.411Z,8.65
2018-12-24T12:03:52.890Z,8.67
2018-12-24T12:06:21.354Z,8.64
2018-12-24T12:08:49.836Z,8.54
2018-12-24T12:11:18.303Z,8.64
2018-12-24T12:13:46.789Z,8.69
2018-12-24T12:16:15.255Z,8.74
2018-12-24T12:18:43.729Z,8.37
2018-12-24T12:21:12.212Z,8.42
2018-12-24T12:23:40.782Z,8.46
2018-12-24T12:26:09.236Z,8.43
2018-12-24T12:28:37.697Z,8.33
2018-12-24T12:31:06.174Z,8.28
2018-12-24T12:36:23.769Z,8.16
2018-12-24T12:38:52.230Z,8.19
2018-12-24T12:41:20.734Z,8.33
2018-12-24T12:43:49.447Z,8.54
2018-12-24T12:46:18.886Z,8.45
2018-12-24T12:48:47.364Z,8.49
2018-12-24T12:51:15.855Z,8.61
2018-12-24T12:53:44.327Z,8.19
2018-12-24T12:56:13.055Z,8.05
2018-12-24T12:58:41.594Z,8.05
2018-12-24T13:01:10.070Z,7.93
2018-12-24T13:03:38.547Z,8.09
2018-12-24T13:06:07.645Z,8.00
2018-12-24T13:08:36.117Z,8.23
2018-12-24T13:11:07.359Z,8.18
2018-12-24T13:13:42.335Z,8.57
2018-12-24T13:16:10.954Z,8.42
2018-12-24T13:18:39.439Z,8.38
2018-12-24T13:21:08.223Z,8.44
2018-12-24T13:23:40.317Z,8.39
2018-12-24T13:26:08.799Z,8.32
2018-12-24T13:28:37.299Z,8.47
2018-12-24T13:31:06.025Z,8.57
2018-12-24T13:33:41.387Z,8.66
2018-12-24T13:36:10.834Z,8.33
2018-12-24T13:38:42.515Z,8.22
2018-12-24T13:41:40.031Z,8.44
2018-12-24T13:44:08.539Z,8.44
2018-12-24T13:46:37.025Z,8.37
2018-12-24T13:49:06.741Z,8.38
2018-12-24T13:51:35.872Z,8.04
2018-12-24T13:54:12.781Z,8.13
2018-12-24T13:56:41.183Z,8.13
2018-12-24T13:59:09.674Z,8.14
2018-12-24T14:01:38.147Z,7.97
2018-12-24T14:04:06.679Z,7.91
2018-12-24T14:06:35.184Z,8.04
2018-12-24T14:09:05.750Z,8.21
2018-12-24T14:11:34.220Z,8.01
2018-12-24T14:14:02.961Z,8.20
2018-12-24T14:16:31.432Z,8.19
2018-12-24T14:19:00.900Z,8.15
2018-12-24T14:21:29.383Z,8.01
2018-12-24T14:23:59.390Z,7.92
2018-12-24T14:26:27.858Z,8.00
2018-12-24T14:28:57.275Z,7.95
2018-12-24T14:31:25.750Z,8.19
2018-12-24T14:33:54.493Z,7.99
2018-12-24T14:36:23.969Z,8.04
2018-12-24T14:38:53.352Z,8.23
2018-12-24T14:41:22.799Z,7.84
2018-12-24T14:43:51.310Z,7.87
2018-12-24T14:46:25.518Z,7.74
2018-12-24T14:48:53.315Z,7.84
2018-12-24T14:51:22.075Z,7.69
2018-12-24T14:53:50.558Z,7.83
2018-12-24T14:56:19.108Z,7.73
2018-12-24T14:58:47.597Z,7.63
2018-12-24T15:01:16.114Z,7.72
2018-12-24T15:03:57.912Z,7.55
2018-12-24T15:06:33.941Z,7.41
2018-12-24T15:09:05.092Z,7.56
2018-12-24T15:11:40.402Z,7.49
2018-12-24T15:14:09.459Z,7.37
2018-12-24T15:16:38.311Z,7.19
2018-12-24T15:19:13.883Z,7.47
2018-12-24T15:21:43.458Z,7.43
2018-12-24T15:24:17.589Z,7.31
2018-12-24T15:26:50.907Z,6.91
2018-12-24T15:29:27.892Z,7.11
2018-12-24T15:32:14.932Z,6.96
2018-12-24T15:34:46.694Z,7.03
2018-12-24T15:37:28.632Z,6.99
2018-12-24T15:39:55.080Z,6.98
2018-12-24T15:42:23.670Z,7.03
2018-12-24T15:44:52.396Z,7.24
2018-12-24T15:47:36.501Z,7.24
2018-12-24T15:50:10.808Z,7.15
2018-12-24T15:52:42.342Z,7.05
2018-12-24T15:55:11.382Z,7.07
2018-12-24T15:57:40.086Z,6.99
2018-12-24T16:00:09.715Z,7.04
2018-12-24T16:02:38.449Z,7.32
2018-12-24T16:05:09.787Z,7.21
2018-12-24T16:10:14.762Z,6.91
2018-12-24T16:12:47.633Z,6.92
2018-12-24T16:15:20.405Z,6.93
2018-12-24T16:17:53.875Z,6.81
2018-12-24T16:20:22.657Z,6.83
2018-12-24T16:22:51.350Z,6.81
2018-12-24T16:25:25.100Z,6.91
2018-12-24T16:27:54.306Z,6.81
2018-12-24T16:30:32.200Z,6.87
2018-12-24T16:33:05.235Z,6.81
2018-12-24T16:35:34.214Z,6.71
2018-12-24T16:38:02.633Z,6.68
2018-12-24T16:40:48.719Z,6.62
2018-12-24T16:43:44.707Z,6.62
2018-12-24T16:46:13.172Z,6.44
2018-12-24T16:48:41.672Z,6.41
2018-12-24T16:51:10.424Z,6.49
2018-12-24T16:53:40.602Z,6.04
2018-12-24T16:56:10.859Z,5.73
2018-12-24T16:58:39.582Z,6.00
2018-12-24T17:01:08.054Z,6.40
2018-12-24T17:03:36.543Z,6.35
2018-12-24T17:06:05.018Z,5.96
2018-12-24T17:08:33.507Z,6.20
2018-12-24T17:11:01.980Z,6.04
2018-12-24T17:13:30.478Z,6.51
2018-12-24T17:15:58.944Z,6.15
2018-12-24T17:18:27.674Z,6.17
2018-12-24T17:20:56.163Z,5.86
2018-12-24T17:23:24.661Z,5.97
2018-12-24T17:25:53.151Z,5.60
2018-12-24T17:28:21.632Z,5.52
2018-12-24T17:30:50.103Z,5.45
2018-12-24T17:33:18.572Z,5.25
2018-12-24T17:35:47.054Z,5.21
2018-12-24T17:38:15.534Z,5.28
2018-12-24T17:40:44.017Z,5.36
2018-12-24T17:43:12.741Z,5.23
2018-12-24T17:45:41.224Z,5.23
2018-12-24T17:48:09.708Z,5.38
2018-12-24T17:50:38.432Z,5.46
2018-12-24T17:53:06.908Z,5.24
2018-12-24T17:55:35.416Z,5.40
2018-12-24T17:58:03.886Z,5.54
2018-12-24T18:00:32.371Z,5.49
2018-12-24T18:03:00.831Z,5.40
2018-12-24T18:05:29.403Z,5.18
2018-12-24T18:07:57.878Z,4.81
2018-12-24T18:10:26.422Z,4.84
2018-12-24T18:13:02.040Z,4.72
2018-12-24T18:15:30.523Z,4.90
2018-12-24T18:17:59.009Z,4.96
2018-12-24T18:20:27.653Z,4.84
2018-12-24T18:22:56.144Z,4.86
2018-12-24T18:25:26.445Z,5.03
2018-12-24T18:27:54.870Z,5.09
2018-12-24T18:30:23.347Z,4.71
2018-12-24T18:32:51.829Z,4.52
2018-12-24T18:35:20.326Z,4.22
2018-12-24T18:37:48.821Z,4.28
2018-12-24T18:40:18.866Z,4.30
2018-12-24T18:42:47.405Z,4.53
2018-12-24T18:45:15.905Z,4.63
2018-12-24T18:47:44.421Z,4.60
2018-12-24T18:50:12.892Z,4.35
2018-12-24T18:52:41.359Z,4.40
2018-12-24T18:55:09.871Z,4.55
2018-12-24T18:57:38.348Z,4.53
2018-12-24T19:00:46.746Z,4.94
2018-12-24T19:03:15.230Z,4.45
2018-12-24T19:05:43.976Z,4.18
2018-12-24T19:08:12.524Z,4.25
2018-12-24T19:10:41.131Z,4.34
2018-12-24T19:13:09.584Z,4.41
2018-12-24T19:15:38.062Z,4.39
2018-12-24T19:18:06.534Z,4.18
2018-12-24T19:20:35.023Z,3.77
2018-12-24T19:23:03.505Z,3.96
2018-12-24T19:25:31.985Z,3.90
2018-12-24T19:28:00.456Z,4.28
2018-12-24T19:30:29.035Z,4.08
2018-12-24T19:32:57.511Z,4.04
2018-12-24T19:35:26.010Z,3.81
2018-12-24T19:37:54.478Z,4.10
2018-12-24T19:40:22.970Z,3.97
2018-12-24T19:42:51.452Z,3.83
2018-12-24T19:45:19.926Z,3.88
2018-12-24T19:47:50.040Z,4.06
2018-12-24T19:50:18.647Z,4.10
2018-12-24T19:52:47.147Z,3.97
2018-12-24T19:55:15.631Z,4.28
2018-12-24T19:58:04.993Z,4.10
2018-12-24T20:00:52.813Z,4.59
2018-12-24T20:03:21.312Z,4.35
2018-12-24T20:05:49.791Z,4.42
2018-12-24T20:08:18.270Z,4.54
2018-12-24T20:10:46.747Z,4.30
2018-12-24T20:13:15.234Z,4.45
2018-12-24T20:15:43.702Z,4.31
2018-12-24T20:18:12.183Z,4.49
2018-12-24T20:20:40.652Z,4.57
2018-12-24T20:23:09.138Z,4.41
2018-12-24T20:25:37.614Z,4.37
2018-12-24T20:28:06.105Z,3.83
2018-12-24T20:30:34.582Z,3.90
2018-12-24T20:33:03.078Z,3.63
2018-12-24T20:35:31.546Z,3.81
2018-12-24T20:38:00.025Z,3.85
2018-12-24T20:40:28.532Z,3.98
2018-12-24T20:42:57.010Z,3.94
2018-12-24T20:45:25.494Z,4.08
2018-12-24T20:47:53.967Z,3.93
2018-12-24T20:50:22.463Z,3.71
2018-12-24T20:52:50.942Z,3.70
2018-12-24T20:55:19.435Z,3.69
2018-12-24T20:57:47.909Z,3.71
2018-12-24T21:00:16.400Z,3.74
2018-12-24T21:02:44.921Z,3.54
2018-12-24T21:05:13.424Z,3.78
2018-12-24T21:07:41.894Z,3.57
2018-12-24T21:10:10.379Z,3.79
2018-12-24T21:12:38.898Z,3.73
2018-12-24T21:15:07.381Z,3.56
2018-12-24T21:17:35.853Z,3.75
2018-12-24T21:22:59.583Z,3.68
2018-12-24T21:25:28.062Z,3.98
2018-12-24T21:27:56.544Z,3.63
2018-12-24T21:30:25.028Z,3.57
2018-12-24T21:32:53.508Z,3.27
2018-12-24T21:35:21.996Z,3.34
2018-12-24T21:37:50.710Z,3.00
2018-12-24T21:40:19.199Z,3.16
2018-12-24T21:42:54.584Z,3.59
2018-12-24T21:45:17.909Z,3.46
2018-12-24T21:47:46.390Z,3.32
2018-12-24T21:50:14.895Z,3.35
2018-12-24T21:52:43.373Z,3.51
2018-12-24T21:55:11.855Z,3.61
2018-12-24T21:57:40.334Z,3.43
2018-12-24T22:00:08.833Z,3.24
2018-12-24T22:02:37.315Z,3.16
2018-12-24T22:05:05.859Z,3.11
2018-12-24T22:07:34.355Z,3.21
2018-12-24T22:10:02.830Z,2.99
2018-12-24T22:12:31.321Z,2.85
2018-12-24T22:14:59.821Z,2.71
2018-12-24T22:17:28.566Z,2.66
2018-12-24T22:19:57.042Z,2.68
2018-12-24T22:22:25.523Z,2.70
2018-12-24T22:24:53.998Z,2.45
2018-12-24T22:27:22.718Z,2.65
2018-12-24T22:29:51.201Z,2.54
2018-12-24T22:32:19.730Z,2.61
2018-12-24T22:34:48.458Z,2.82
2018-12-24T22:37:16.941Z,2.86
2018-12-24T22:39:45.431Z,2.67
2018-12-24T22:42:13.905Z,2.75
2018-12-24T22:44:42.395Z,2.99
2018-12-24T22:47:10.997Z,2.89
2018-12-24T22:49:39.718Z,3.12
2018-12-24T22:52:08.230Z,3.31
2018-12-24T22:54:36.699Z,3.08
2018-12-24T22:57:05.172Z,3.24
2018-12-24T22:59:33.657Z,3.15
2018-12-24T23:02:02.369Z,2.93
2018-12-24T23:04:30.855Z,2.94
2018-12-24T23:06:59.328Z,2.93
2018-12-24T23:09:28.066Z,3.21
2018-12-24T23:11:56.555Z,3.45
2018-12-24T23:14:25.075Z,3.23
2018-12-24T23:17:12.892Z,3.15
2018-12-24T23:20:00.711Z,3.20
2018-12-24T23:22:29.224Z,3.18
2018-12-24T23:24:57.711Z,2.71
2018-12-24T23:27:26.192Z,2.78
2018-12-24T23:29:54.695Z,2.80
2018-12-24T23:32:23.166Z,2.65
2018-12-24T23:34:51.656Z,2.65
2018-12-24T23:37:20.137Z,2.63
2018-12-24T23:39:48.630Z,2.70
2018-12-24T23:42:17.123Z,2.80
2018-12-24T23:44:46.024Z,2.52
2018-12-24T23:47:14.513Z,2.44
2018-12-24T23:49:42.981Z,2.81
2018-12-24T23:52:11.475Z,2.75
2018-12-24T23:54:39.945Z,2.68
2018-12-24T23:57:08.435Z,2.74
2018-12-24T23:59:36.919Z,2.83
